createdAt,value
2018-07-16T00:01:36.312Z,14.03
2018-07-16T00:04:04.781Z,11.90
2018-07-16T00:06:34.045Z,12.73
2018-07-16T00:09:03.145Z,10.33
2018-07-16T00:11:31.771Z,9.07
2018-07-16T00:14:00.419Z,9.37
2018-07-16T00:16:29.033Z,7.47
2018-07-16T00:18:58.172Z,14.43
2018-07-16T00:21:27.370Z,12.43
2018-07-16T00:23:56.614Z,9.53
2018-07-16T00:26:25.831Z,9.97
2018-07-16T00:28:54.531Z,9.10
2018-07-16T00:31:23.071Z,10.40
2018-07-16T00:33:52.155Z,10.03
2018-07-16T00:36:20.848Z,12.63
2018-07-16T00:38:50.132Z,8.70
2018-07-16T00:41:19.220Z,10.23
2018-07-16T00:43:48.489Z,11.67
2018-07-16T00:46:17.716Z,8.67
2018-07-16T00:48:46.679Z,9.27
2018-07-16T00:51:15.932Z,11.00
2018-07-16T00:53:45.159Z,9.17
2018-07-16T00:56:14.371Z,11.17
2018-07-16T00:58:43.615Z,12.40
2018-07-16T01:01:12.887Z,8.50
2018-07-16T01:03:41.879Z,9.97
2018-07-16T01:06:11.158Z,9.17
2018-07-16T01:08:40.072Z,8.57
2018-07-16T01:11:09.436Z,9.73
2018-07-16T01:13:37.973Z,9.27
2018-07-16T01:16:07.035Z,10.50
2018-07-16T01:18:36.288Z,11.40
2018-07-16T01:21:05.444Z,10.30
2018-07-16T01:23:34.476Z,11.57
2018-07-16T01:26:03.723Z,10.70
2018-07-16T01:28:32.898Z,12.87
2018-07-16T01:31:01.959Z,9.37
2018-07-16T01:33:31.593Z,13.20
2018-07-16T01:36:00.579Z,10.77
2018-07-16T01:38:29.137Z,9.93
2018-07-16T01:40:58.685Z,11.40
2018-07-16T01:43:27.207Z,9.20
2018-07-16T01:45:55.788Z,12.30
2018-07-16T01:48:24.264Z,9.47
2018-07-16T01:50:52.733Z,8.43
2018-07-16T01:53:21.367Z,10.03
2018-07-16T01:55:49.956Z,10.27
2018-07-16T01:58:19.123Z,11.47
2018-07-16T02:00:52.975Z,8.87
2018-07-16T02:03:22.557Z,8.77
2018-07-16T02:05:51.700Z,8.63
2018-07-16T02:08:21.884Z,11.63
2018-07-16T02:10:51.316Z,8.97
2018-07-16T02:13:20.780Z,13.77
2018-07-16T02:15:50.127Z,10.77
2018-07-16T02:18:19.210Z,10.00
2018-07-16T02:20:49.196Z,9.53
2018-07-16T02:23:18.390Z,7.73
2018-07-16T02:25:47.879Z,7.20
2018-07-16T02:28:16.884Z,8.47
2018-07-16T02:30:45.888Z,8.17
2018-07-16T02:33:14.735Z,8.07
2018-07-16T02:35:43.794Z,7.43
2018-07-16T02:38:12.775Z,7.70
2018-07-16T02:40:41.857Z,8.87
2018-07-16T02:43:11.088Z,6.93
2018-07-16T02:45:40.317Z,9.17
2018-07-16T02:48:09.354Z,8.93
2018-07-16T02:50:38.582Z,7.27
2018-07-16T02:53:07.785Z,9.07
2018-07-16T02:55:37.013Z,10.73
2018-07-16T02:58:06.083Z,7.37
2018-07-16T03:00:35.270Z,7.97
2018-07-16T03:03:04.492Z,8.53
2018-07-16T03:05:33.474Z,9.20
2018-07-16T03:08:02.580Z,7.80
2018-07-16T03:10:31.544Z,7.80
2018-07-16T03:13:00.576Z,7.80
2018-07-16T03:15:29.624Z,9.03
2018-07-16T03:17:58.854Z,6.93
2018-07-16T03:20:28.128Z,7.80
2018-07-16T03:22:57.312Z,10.30
2018-07-16T03:25:26.376Z,12.20
2018-07-16T03:27:55.576Z,9.13
2018-07-16T03:30:24.795Z,9.60
2018-07-16T03:32:54.047Z,8.07
2018-07-16T03:35:23.041Z,7.50
2018-07-16T03:37:52.268Z,7.57
2018-07-16T03:40:21.504Z,8.17
2018-07-16T03:42:50.739Z,10.40
2018-07-16T03:45:19.930Z,14.73
2018-07-16T03:47:49.183Z,7.17
2018-07-16T03:50:18.400Z,7.50
2018-07-16T03:52:47.772Z,7.23
2018-07-16T03:55:17.030Z,8.23
2018-07-16T03:57:46.276Z,8.30
2018-07-16T04:00:15.512Z,6.67
2018-07-16T04:02:44.505Z,9.47
2018-07-16T04:05:13.548Z,7.77
2018-07-16T04:07:42.578Z,8.40
2018-07-16T04:10:11.768Z,8.07
2018-07-16T04:12:40.636Z,8.80
2018-07-16T04:15:09.643Z,9.57
2018-07-16T04:17:38.738Z,9.80
2018-07-16T04:20:07.967Z,9.53
2018-07-16T04:22:37.159Z,7.73
2018-07-16T04:25:06.439Z,9.43
2018-07-16T04:27:34.984Z,9.03
2018-07-16T04:30:03.596Z,8.80
2018-07-16T04:32:32.663Z,10.70
2018-07-16T04:35:01.928Z,9.10
2018-07-16T04:37:30.911Z,8.93
2018-07-16T04:40:00.433Z,8.40
2018-07-16T04:42:29.632Z,12.20
2018-07-16T04:44:58.824Z,7.97
2018-07-16T04:47:28.075Z,9.33
2018-07-16T04:49:57.267Z,10.30
2018-07-16T04:52:26.633Z,12.77
2018-07-16T04:54:55.707Z,9.80
2018-07-16T04:57:24.929Z,8.47
2018-07-16T04:59:54.182Z,11.20
2018-07-16T05:02:23.399Z,8.23
2018-07-16T05:04:52.645Z,10.00
2018-07-16T05:07:22.027Z,8.53
2018-07-16T05:09:51.103Z,12.20
2018-07-16T05:12:20.085Z,9.03
2018-07-16T05:14:48.544Z,9.77
2018-07-16T05:17:17.291Z,10.73
2018-07-16T05:19:45.774Z,10.07
2018-07-16T05:22:14.236Z,8.43
2018-07-16T05:24:42.743Z,9.07
2018-07-16T05:27:11.946Z,10.07
2018-07-16T05:29:40.996Z,11.10
2018-07-16T05:32:10.313Z,11.50
2018-07-16T05:34:39.403Z,9.63
2018-07-16T05:37:08.632Z,10.57
2018-07-16T05:39:37.892Z,10.13
2018-07-16T05:42:06.899Z,9.93
2018-07-16T05:44:36.151Z,11.37
2018-07-16T05:47:05.316Z,8.63
2018-07-16T05:49:34.570Z,9.67
2018-07-16T05:52:03.829Z,10.23
2018-07-16T05:54:33.027Z,8.73
2018-07-16T05:57:02.418Z,10.03
2018-07-16T05:59:31.672Z,8.67
2018-07-16T06:02:00.317Z,9.67
2018-07-16T06:04:28.787Z,10.83
2018-07-16T06:06:57.972Z,10.57
2018-07-16T06:09:27.198Z,9.67
2018-07-16T06:11:56.415Z,13.80
2018-07-16T06:14:25.818Z,10.60
2018-07-16T06:16:54.666Z,8.97
2018-07-16T06:19:23.317Z,11.20
2018-07-16T06:21:52.633Z,11.97
2018-07-16T06:24:21.768Z,11.67
2018-07-16T06:26:50.999Z,10.93
2018-07-16T06:29:19.988Z,10.67
2018-07-16T06:31:48.754Z,9.53
2018-07-16T06:34:17.695Z,8.23
2018-07-16T06:36:46.249Z,8.47
2018-07-16T06:39:14.724Z,8.07
2018-07-16T06:41:43.205Z,11.13
2018-07-16T06:44:11.695Z,10.37
2018-07-16T06:46:40.199Z,9.10
2018-07-16T06:49:08.792Z,13.03
2018-07-16T06:51:37.270Z,9.57
2018-07-16T06:54:05.743Z,9.93
2018-07-16T06:56:34.214Z,8.50
2018-07-16T06:59:02.723Z,12.27
2018-07-16T07:01:31.284Z,11.10
2018-07-16T07:03:59.765Z,11.23
2018-07-16T07:06:29.280Z,13.87
2018-07-16T07:08:57.780Z,11.27
2018-07-16T07:11:26.832Z,11.27
2018-07-16T07:13:56.077Z,9.17
2018-07-16T07:16:25.157Z,10.97
2018-07-16T07:18:54.399Z,10.20
2018-07-16T07:21:23.552Z,12.20
2018-07-16T07:23:52.545Z,9.90
2018-07-16T07:26:21.585Z,8.97
2018-07-16T07:28:50.851Z,8.10
2018-07-16T07:31:19.896Z,10.47
2018-07-16T07:33:48.884Z,9.97
2018-07-16T07:36:18.145Z,11.57
2018-07-16T07:38:47.404Z,8.33
2018-07-16T07:41:16.602Z,9.83
2018-07-16T07:43:45.830Z,7.07
2018-07-16T07:46:14.816Z,7.20
2018-07-16T07:48:44.050Z,7.93
2018-07-16T07:51:12.687Z,13.93
2018-07-16T07:53:41.936Z,10.13
2018-07-16T07:56:11.178Z,7.40
2018-07-16T07:58:40.370Z,10.13
2018-07-16T08:01:09.415Z,11.10
2018-07-16T08:03:38.434Z,8.17
2018-07-16T08:06:08.471Z,8.50
2018-07-16T08:08:38.197Z,10.50
2018-07-16T08:11:07.737Z,9.03
2018-07-16T08:13:36.958Z,8.40
2018-07-16T08:16:05.678Z,9.03
2018-07-16T08:18:34.283Z,5.07
2018-07-16T08:21:02.881Z,6.63
2018-07-16T08:23:32.058Z,9.20
2018-07-16T08:26:01.306Z,10.50
2018-07-16T08:28:29.834Z,9.73
2018-07-16T08:30:58.396Z,8.13
2018-07-16T08:33:27.164Z,7.97
2018-07-16T08:35:55.713Z,6.30
2018-07-16T08:38:24.692Z,8.30
2018-07-16T08:40:53.250Z,5.93
2018-07-16T08:43:22.387Z,5.77
2018-07-16T08:45:51.318Z,6.87
2018-07-16T08:48:20.597Z,7.40
2018-07-16T08:50:49.797Z,9.50
2018-07-16T08:53:18.992Z,6.67
2018-07-16T08:55:48.028Z,5.73
2018-07-16T08:58:16.562Z,6.03
2018-07-16T09:00:45.155Z,6.73
2018-07-16T09:03:13.664Z,6.13
2018-07-16T09:05:42.323Z,4.87
2018-07-16T09:08:11.503Z,5.93
2018-07-16T09:10:40.697Z,6.87
2018-07-16T09:13:09.976Z,5.70
2018-07-16T09:15:39.163Z,6.73
2018-07-16T09:18:07.684Z,5.57
2018-07-16T09:20:36.218Z,7.60
2018-07-16T09:23:05.426Z,6.87
2018-07-16T09:25:34.774Z,4.60
2018-07-16T09:28:03.259Z,6.20
2018-07-16T09:30:31.797Z,4.80
2018-07-16T09:33:00.324Z,5.13
2018-07-16T09:35:29.203Z,4.80
2018-07-16T09:37:57.722Z,3.50
2018-07-16T09:40:26.268Z,7.73
2018-07-16T09:42:54.808Z,5.63
2018-07-16T09:45:23.312Z,5.77
2018-07-16T09:47:52.618Z,5.47
2018-07-16T09:50:21.845Z,5.63
2018-07-16T09:52:50.404Z,6.20
2018-07-16T09:55:19.665Z,6.57
2018-07-16T09:57:48.269Z,6.13
2018-07-16T10:00:21.054Z,4.53
2018-07-16T10:02:50.280Z,6.90
2018-07-16T10:05:19.313Z,8.53
2018-07-16T10:07:48.329Z,4.97
2018-07-16T10:10:18.102Z,6.23
2018-07-16T10:12:47.372Z,7.80
2018-07-16T10:15:15.928Z,6.03
2018-07-16T10:17:44.425Z,4.90
2018-07-16T10:20:13.670Z,6.53
2018-07-16T10:22:42.310Z,3.90
2018-07-16T10:25:11.366Z,5.90
2018-07-16T10:27:40.611Z,5.20
2018-07-16T10:30:09.209Z,6.93
2018-07-16T10:32:37.803Z,4.10
2018-07-16T10:35:06.372Z,3.30
2018-07-16T10:37:34.909Z,5.30
2018-07-16T10:40:03.435Z,4.23
2018-07-16T10:42:31.941Z,4.87
2018-07-16T10:45:00.510Z,3.93
2018-07-16T10:47:29.246Z,6.20
2018-07-16T10:49:57.780Z,4.50
2018-07-16T10:52:26.728Z,9.80
2018-07-16T10:54:55.252Z,5.13
2018-07-16T10:57:23.833Z,6.40
2018-07-16T10:59:52.322Z,5.10
2018-07-16T11:02:20.813Z,6.10
2018-07-16T11:04:49.279Z,5.27
2018-07-16T11:07:17.849Z,3.77
2018-07-16T11:09:46.417Z,5.00
2018-07-16T11:12:15.008Z,4.57
2018-07-16T11:14:43.498Z,5.93
2018-07-16T11:17:12.085Z,5.37
2018-07-16T11:19:40.568Z,4.03
2018-07-16T11:22:09.344Z,5.20
2018-07-16T11:24:38.060Z,4.33
2018-07-16T11:27:06.632Z,5.90
2018-07-16T11:29:35.128Z,4.13
2018-07-16T11:32:04.211Z,3.43
2018-07-16T11:34:33.368Z,3.60
2018-07-16T11:37:02.380Z,5.70
2018-07-16T11:39:31.603Z,4.63
2018-07-16T11:42:00.843Z,4.03
2018-07-16T11:44:29.355Z,3.60
2018-07-16T11:46:57.851Z,5.40
2018-07-16T11:49:27.053Z,3.20
2018-07-16T11:51:55.500Z,6.90
2018-07-16T11:54:23.995Z,3.20
2018-07-16T11:56:53.261Z,4.17
2018-07-16T11:59:22.445Z,5.33
2018-07-16T12:01:51.692Z,2.93
2018-07-16T12:04:20.717Z,3.03
2018-07-16T12:06:49.943Z,4.27
2018-07-16T12:09:18.941Z,3.00
2018-07-16T12:11:48.204Z,3.30
2018-07-16T12:14:17.441Z,3.53
2018-07-16T12:16:46.637Z,3.17
2018-07-16T12:19:15.874Z,3.10
2018-07-16T12:21:44.360Z,3.00
2018-07-16T12:24:12.839Z,2.80
2018-07-16T12:26:41.981Z,5.20
2018-07-16T12:29:11.331Z,3.40
2018-07-16T12:31:40.190Z,2.90
2018-07-16T12:34:09.220Z,2.87
2018-07-16T12:36:37.697Z,3.03
2018-07-16T12:39:07.201Z,2.83
2018-07-16T12:41:36.452Z,2.60
2018-07-16T12:44:05.555Z,2.67
2018-07-16T12:46:34.783Z,4.80
2018-07-16T12:49:04.035Z,3.00
2018-07-16T12:51:33.253Z,4.00
2018-07-16T12:54:02.488Z,3.43
2018-07-16T12:56:31.567Z,8.27
2018-07-16T12:59:00.485Z,2.93
2018-07-16T13:01:29.964Z,3.03
2018-07-16T13:03:59.180Z,3.33
2018-07-16T13:06:28.400Z,3.20
2018-07-16T13:08:56.859Z,3.00
2018-07-16T13:11:26.353Z,3.40
2018-07-16T13:13:55.627Z,3.93
2018-07-16T13:16:24.737Z,5.50
2018-07-16T13:18:53.736Z,2.67
2018-07-16T13:21:22.986Z,3.43
2018-07-16T13:23:51.957Z,2.93
2018-07-16T13:26:21.234Z,2.70
2018-07-16T13:28:49.706Z,3.23
2018-07-16T13:31:18.223Z,3.67
2018-07-16T13:33:46.778Z,2.93
2018-07-16T13:36:15.284Z,5.50
2018-07-16T13:38:44.431Z,3.40
2018-07-16T13:41:13.644Z,3.20
2018-07-16T13:43:42.872Z,6.87
2018-07-16T13:46:12.087Z,2.90
2018-07-16T13:48:41.359Z,2.60
2018-07-16T13:51:10.331Z,8.70
2018-07-16T13:53:39.568Z,3.10
2018-07-16T13:56:08.050Z,4.47
2018-07-16T13:58:36.747Z,2.47
2018-07-16T14:01:05.258Z,3.87
2018-07-16T14:03:33.859Z,3.43
2018-07-16T14:06:02.499Z,2.47
2018-07-16T14:08:30.991Z,4.43
2018-07-16T14:10:59.472Z,2.60
2018-07-16T14:13:28.041Z,2.27
2018-07-16T14:15:56.537Z,4.10
2018-07-16T14:18:24.995Z,2.57
2018-07-16T14:20:53.461Z,3.67
2018-07-16T14:23:21.914Z,2.77
2018-07-16T14:25:50.404Z,2.37
2018-07-16T14:28:18.835Z,3.27
2018-07-16T14:30:47.419Z,3.83
2018-07-16T14:33:15.956Z,2.97
2018-07-16T14:35:44.449Z,3.37
2018-07-16T14:38:12.976Z,3.00
2018-07-16T14:40:41.546Z,6.03
2018-07-16T14:43:10.032Z,2.97
2018-07-16T14:45:38.558Z,4.33
2018-07-16T14:48:07.136Z,5.30
2018-07-16T14:50:35.684Z,4.93
2018-07-16T14:53:04.187Z,3.10
2018-07-16T14:55:32.657Z,8.13
2018-07-16T14:58:01.196Z,3.20
2018-07-16T15:00:29.732Z,3.43
2018-07-16T15:02:58.239Z,3.43
2018-07-16T15:05:26.905Z,3.53
2018-07-16T15:07:55.356Z,3.90
2018-07-16T15:10:23.855Z,2.97
2018-07-16T15:12:52.343Z,2.83
2018-07-16T15:15:20.816Z,4.17
2018-07-16T15:17:49.371Z,4.30
2018-07-16T15:20:18.946Z,4.47
2018-07-16T15:22:47.423Z,3.00
2018-07-16T15:25:15.950Z,4.70
2018-07-16T15:27:44.485Z,2.83
2018-07-16T15:30:13.018Z,3.57
2018-07-16T15:32:41.608Z,4.37
2018-07-16T15:35:10.075Z,3.60
2018-07-16T15:37:38.535Z,3.20
2018-07-16T15:40:07.032Z,3.40
2018-07-16T15:42:36.024Z,2.93
2018-07-16T15:45:04.661Z,2.77
2018-07-16T15:47:33.195Z,4.17
2018-07-16T15:50:01.692Z,3.77
2018-07-16T15:52:30.148Z,2.53
2018-07-16T15:54:58.628Z,2.53
2018-07-16T15:57:27.084Z,5.70
2018-07-16T15:59:55.603Z,3.53
2018-07-16T16:02:24.064Z,2.93
2018-07-16T16:04:52.714Z,2.70
2018-07-16T16:07:21.553Z,2.70
2018-07-16T16:09:50.027Z,3.40
2018-07-16T16:12:18.509Z,3.83
2018-07-16T16:14:47.107Z,3.13
2018-07-16T16:17:15.618Z,3.07
2018-07-16T16:19:44.146Z,3.63
2018-07-16T16:22:12.643Z,2.40
2018-07-16T16:24:41.116Z,4.63
2018-07-16T16:27:09.640Z,4.17
2018-07-16T16:29:38.155Z,2.90
2018-07-16T16:32:07.062Z,2.60
2018-07-16T16:34:35.659Z,4.13
2018-07-16T16:37:04.195Z,3.30
2018-07-16T16:39:32.690Z,3.57
2018-07-16T16:42:01.167Z,3.40
2018-07-16T16:44:29.752Z,3.63
2018-07-16T16:46:58.338Z,3.60
2018-07-16T16:49:26.877Z,4.60
2018-07-16T16:51:55.411Z,3.63
2018-07-16T16:54:23.866Z,4.67
2018-07-16T16:56:52.370Z,3.53
2018-07-16T16:59:20.822Z,3.00
2018-07-16T17:01:49.516Z,3.77
2018-07-16T17:04:17.994Z,3.83
2018-07-16T17:06:46.636Z,2.80
2018-07-16T17:09:15.230Z,2.87
2018-07-16T17:11:43.742Z,4.83
2018-07-16T17:14:12.289Z,4.03
2018-07-16T17:16:40.764Z,3.27
2018-07-16T17:19:09.405Z,3.67
2018-07-16T17:21:38.114Z,7.70
2018-07-16T17:24:06.787Z,6.73
2018-07-16T17:26:35.307Z,3.83
2018-07-16T17:29:03.773Z,4.53
2018-07-16T17:31:32.254Z,15.17
2018-07-16T17:34:00.744Z,3.63
2018-07-16T17:36:29.245Z,6.23
2018-07-16T17:38:57.730Z,3.33
2018-07-16T17:41:26.227Z,5.10
2018-07-16T17:43:54.772Z,4.77
2018-07-16T17:46:23.269Z,3.17
2018-07-16T17:48:51.750Z,4.10
2018-07-16T17:51:20.252Z,3.53
2018-07-16T17:53:48.880Z,5.17
2018-07-16T17:56:17.371Z,3.30
2018-07-16T17:58:45.934Z,3.53
2018-07-16T18:01:14.473Z,4.00
2018-07-16T18:03:42.951Z,3.07
2018-07-16T18:06:11.436Z,5.03
2018-07-16T18:08:39.915Z,3.83
2018-07-16T18:11:08.555Z,3.87
2018-07-16T18:13:37.013Z,5.93
2018-07-16T18:16:05.529Z,3.63
2018-07-16T18:18:33.987Z,4.67
2018-07-16T18:21:02.642Z,7.23
2018-07-16T18:23:31.668Z,3.83
2018-07-16T18:26:00.303Z,3.53
2018-07-16T18:28:28.861Z,4.27
2018-07-16T18:30:57.819Z,5.43
2018-07-16T18:33:26.292Z,5.30
2018-07-16T18:35:54.894Z,3.43
2018-07-16T18:38:23.380Z,6.80
2018-07-16T18:40:51.935Z,6.60
2018-07-16T18:43:20.432Z,3.87
2018-07-16T18:45:48.913Z,4.93
2018-07-16T18:48:17.582Z,3.40
2018-07-16T18:50:46.141Z,3.50
2018-07-16T18:53:14.651Z,4.30
2018-07-16T18:55:43.160Z,4.43
2018-07-16T18:58:11.656Z,4.00
2018-07-16T19:00:40.155Z,6.67
2018-07-16T19:03:08.643Z,3.30
2018-07-16T19:05:37.122Z,3.90
2018-07-16T19:08:05.707Z,4.13
2018-07-16T19:10:34.164Z,4.23
2018-07-16T19:13:03.031Z,5.47
2018-07-16T19:15:31.499Z,4.87
2018-07-16T19:17:59.978Z,4.70
2018-07-16T19:20:28.532Z,3.60
2018-07-16T19:22:57.076Z,7.27
2018-07-16T19:25:25.572Z,3.10
2018-07-16T19:27:54.149Z,3.00
2018-07-16T19:30:23.286Z,3.10
2018-07-16T19:32:52.292Z,5.07
2018-07-16T19:35:24.113Z,3.20
2018-07-16T19:37:53.113Z,3.60
2018-07-16T19:40:22.388Z,3.07
2018-07-16T19:42:51.581Z,7.17
2018-07-16T19:45:20.560Z,4.33
2018-07-16T19:47:49.616Z,5.27
2018-07-16T19:50:18.857Z,4.73
2018-07-16T19:52:48.088Z,3.67
2018-07-16T19:55:17.408Z,3.23
2018-07-16T19:57:46.337Z,5.93
2018-07-16T20:00:15.926Z,4.10
2018-07-16T20:02:45.570Z,4.27
2018-07-16T20:05:15.184Z,4.67
2018-07-16T20:07:44.733Z,4.37
2018-07-16T20:10:13.818Z,4.23
2018-07-16T20:12:42.862Z,4.43
2018-07-16T20:15:16.212Z,3.90
2018-07-16T20:17:45.391Z,8.33
2018-07-16T20:20:14.927Z,6.60
2018-07-16T20:22:43.388Z,3.20
2018-07-16T20:25:12.785Z,3.57
2018-07-16T20:27:42.339Z,5.43
2018-07-16T20:30:11.616Z,2.97
2018-07-16T20:32:40.855Z,3.73
2018-07-16T20:35:09.833Z,4.43
2018-07-16T20:37:38.315Z,4.77
2018-07-16T20:40:06.790Z,3.77
2018-07-16T20:42:35.283Z,3.30
2018-07-16T20:45:03.900Z,4.50
2018-07-16T20:47:32.356Z,5.40
2018-07-16T20:50:00.823Z,4.97
2018-07-16T20:52:30.076Z,5.47
2018-07-16T20:54:59.302Z,5.93
2018-07-16T20:57:28.315Z,3.80
2018-07-16T20:59:57.349Z,6.67
2018-07-16T21:02:26.401Z,4.07
2018-07-16T21:04:55.662Z,6.17
2018-07-16T21:07:24.829Z,3.83
2018-07-16T21:09:53.857Z,6.27
2018-07-16T21:12:23.262Z,6.73
2018-07-16T21:14:52.506Z,5.43
2018-07-16T21:17:21.753Z,5.43
2018-07-16T21:19:50.995Z,6.20
2018-07-16T21:22:20.204Z,3.90
2018-07-16T21:24:49.548Z,4.90
2018-07-16T21:27:18.786Z,3.67
2018-07-16T21:29:48.238Z,4.60
2018-07-16T21:32:17.677Z,5.70
2018-07-16T21:34:46.716Z,3.43
2018-07-16T21:37:16.089Z,3.97
2018-07-16T21:39:45.369Z,3.70
2018-07-16T21:42:14.622Z,5.27
2018-07-16T21:44:43.680Z,3.30
2018-07-16T21:47:12.904Z,3.50
2018-07-16T21:49:42.068Z,3.80
2018-07-16T21:52:11.298Z,4.67
2018-07-16T21:54:40.564Z,3.80
2018-07-16T21:57:09.749Z,4.53
2018-07-16T21:59:38.967Z,4.17
2018-07-16T22:02:07.989Z,4.03
2018-07-16T22:04:37.261Z,4.03
2018-07-16T22:07:06.469Z,4.97
2018-07-16T22:09:35.504Z,3.97
2018-07-16T22:12:04.484Z,6.87
2018-07-16T22:14:33.977Z,7.87
2018-07-16T22:17:03.040Z,5.90
2018-07-16T22:19:32.756Z,4.33
2018-07-16T22:22:02.068Z,3.80
2018-07-16T22:24:31.008Z,6.40
2018-07-16T22:27:00.149Z,4.93
2018-07-16T22:29:29.341Z,7.27
2018-07-16T22:31:58.522Z,4.47
2018-07-16T22:34:27.511Z,3.83
2018-07-16T22:36:57.164Z,4.20
2018-07-16T22:39:26.411Z,3.77
2018-07-16T22:41:55.949Z,5.40
2018-07-16T22:44:25.077Z,4.63
2018-07-16T22:46:54.347Z,4.10
2018-07-16T22:49:23.252Z,4.20
2018-07-16T22:51:52.320Z,4.93
2018-07-16T22:54:21.553Z,3.50
2018-07-16T22:56:50.801Z,4.17
2018-07-16T22:59:20.043Z,6.00
2018-07-16T23:01:49.235Z,3.63
2018-07-16T23:04:18.455Z,5.30
2018-07-16T23:06:47.499Z,4.10
2018-07-16T23:09:16.883Z,4.17
2018-07-16T23:11:45.931Z,3.70
2018-07-16T23:14:15.563Z,5.03
2018-07-16T23:16:44.908Z,4.17
2018-07-16T23:19:13.779Z,4.80
2018-07-16T23:21:43.007Z,4.13
2018-07-16T23:24:12.265Z,5.40
2018-07-16T23:26:42.643Z,5.03
2018-07-16T23:29:11.947Z,3.30
2018-07-16T23:31:40.939Z,4.03
2018-07-16T23:34:10.133Z,4.50
2018-07-16T23:36:39.467Z,3.63
2018-07-16T23:39:09.570Z,4.30
2018-07-16T23:46:47.591Z,4.27
2018-07-16T23:49:16.932Z,3.70
2018-07-16T23:51:46.152Z,4.87
2018-07-16T23:54:15.360Z,4.03
2018-07-16T23:56:44.583Z,4.30
2018-07-16T23:59:13.835Z,4.10
